Simpsons, Virginia
Current Conditions -  °F | °C
As of 8:35 PM on Monday 24 Nov 2014 (Local Time) from KBCB Reporting Station
Clear Clear  
Wind Chill: 57°   Ceiling: Unl
Heat Index: 57°   Visibility: 10mi
Dew Point: 54°   Wind: 6mph
Humidity: 88%   Direction: 210°SSW
Pressure: 29.87"   Gusts: NA
Location:  37.0318°N, 80.2402°W
Report Text: KBCB 250135Z AUTO 21005KT 10SM CLR 14/12 A2987 RMK AO2
Loading
Personal Weather Stations






























Interactive Weather Map New forecast layout! Learn more

10-Day Weather Forecast

Advertisements
Track Severe Weather on mobile